Terminal Aerodrome Forecast
Issued by NWS Wichita, KS

Home | Current Version | Previous Version | Text Only | Print | Product List | Glossary On
Versions: 1 2 3 4 5 6 7 8 9 10 11 12 13 14 15 16 17 18 19 20 21 22 23 24
992
FTUS43 KICT 242219 AAA
TAFICT
TAF AMD
KICT 242219Z 2422/2518 18008KT P6SM VCTS BKN050CB OVC080
      TEMPO 2422/2501 VRB20G35KT 1 1/2SM +TSRA OVC035CB
     FM250100 VRB04KT P6SM VCTS SCT025 OVC050CB
     FM250900 08007KT P6SM VCSH OVC025=

USA.gov is the U.S. government's official web portal to all federal, state and local government web resources and services.